Surgoinsville, Tennessee
Current Conditions -  °F | °C
As of 6:15 PM on Wednesday 22 Oct 2014 (Local Time) from K0VG Reporting Station
Overcast Overcast  
Wind Chill: 48°   Ceiling: 2600
Heat Index: 48°   Visibility: 10mi
Dew Point: 39°   Wind: 0mph
Humidity: 71%   Direction: NA
Pressure: 30.25"   Gusts: NA
Location:  36.47°N, 82.85°W
Report Text: K0VG 222215Z AUTO 00000KT 10SM OVC026 09/04 A3025 RMK AO2
Loading
Personal Weather Stations






























Interactive Weather Map
Tropical Storm Tracking
New forecast layout! Learn more

10-Day Weather Forecast

Advertisements
Track Severe Weather on mobile